Decoded Metar for LETL (TERUEL in SPAIN) (IATA:N/A) | Meteo·Mobile Aviation Weather
aviador You're here:

LETL Decoded Metar

TERUEL in SPAIN
Report Time2019-05-23 10:30:00
UTC Time2019-05-23 11:02:52
Flight Rules vfr VFR
Wind120° at 06 kt
Visibility9999 m
Phenomena:N/A
Clouds:N/A
Expected CloudBase > 4,000 ft AGL from Temp-Dew spread
CeilingNone
Temp20°C (ISA +12)
Dew Point10°C (53% RH)
AAT17.9°C
QNH1019 hPa
Density Alt4,695 ft
Elevation3,367 ft
Report Wrong Elevation
Raw Report
METAR LETL 231030Z AUTO 12006KT 080V160 CAVOK 20/10 Q1019=

Extra information for LETL:More info

Metar Taf Metar & Taf Last 4 Metars F.Rules Stats Wind Profile Meteogram Temp Stats Airport Information Weather charts Add Link Nearby VenuesMetar ALERT Operation Metar Decoded Social comments